createdAt,value
2023-05-01T00:00:32.942Z,3.73
2023-05-01T00:03:01.073Z,2.37
2023-05-01T00:05:29.244Z,3.03
2023-05-01T00:07:58.144Z,3.67
2023-05-01T00:10:26.166Z,3.60
2023-05-01T00:12:55.573Z,5.17
2023-05-01T00:15:24.812Z,3.33
2023-05-01T00:17:55.408Z,2.20
2023-05-01T00:20:23.764Z,3.43
2023-05-01T00:22:51.604Z,3.13
2023-05-01T00:25:19.580Z,3.20
2023-05-01T00:27:48.449Z,2.47
2023-05-01T00:30:17.810Z,3.53
2023-05-01T00:32:45.820Z,4.23
2023-05-01T00:35:13.747Z,3.17
2023-05-01T00:37:42.243Z,3.83
2023-05-01T00:40:10.739Z,3.80
2023-05-01T00:42:40.831Z,2.83
2023-05-01T00:45:09.525Z,3.47
2023-05-01T00:47:39.530Z,3.00
2023-05-01T00:50:09.038Z,5.97
2023-05-01T00:52:37.368Z,3.33
2023-05-01T00:55:06.062Z,2.20
2023-05-01T00:57:34.059Z,2.83
2023-05-01T01:00:01.903Z,2.83
2023-05-01T01:02:30.104Z,3.57
2023-05-01T01:04:59.827Z,3.40
2023-05-01T01:07:37.896Z,3.67
2023-05-01T01:10:14.690Z,2.97
2023-05-01T01:12:54.021Z,3.13
2023-05-01T01:15:29.888Z,2.90
2023-05-01T01:18:06.465Z,3.80
2023-05-01T01:20:40.233Z,3.63
2023-05-01T01:23:36.219Z,3.13
2023-05-01T01:26:21.102Z,2.43
2023-05-01T01:29:42.700Z,3.83
2023-05-01T01:32:51.026Z,4.57
2023-05-01T01:35:28.905Z,3.40
2023-05-01T01:38:02.748Z,3.70
2023-05-01T01:40:38.069Z,2.87
2023-05-01T01:43:09.054Z,3.33
2023-05-01T01:45:41.064Z,2.20
2023-05-01T01:48:12.285Z,1.87
2023-05-01T01:50:43.589Z,3.17
2023-05-01T01:53:14.493Z,3.17
2023-05-01T01:55:45.114Z,4.67
2023-05-01T01:58:13.464Z,4.07
2023-05-01T02:00:43.586Z,3.60
2023-05-01T02:03:12.096Z,4.63
2023-05-01T02:05:43.425Z,4.00
2023-05-01T02:08:14.615Z,2.50
2023-05-01T02:10:44.103Z,3.13
2023-05-01T02:13:14.627Z,3.63
2023-05-01T02:15:43.653Z,3.43
2023-05-01T02:18:12.853Z,2.37
2023-05-01T02:20:44.109Z,3.37
2023-05-01T02:23:14.046Z,3.57
2023-05-01T02:25:43.803Z,5.27
2023-05-01T02:28:14.485Z,2.67
2023-05-01T02:30:42.362Z,2.67
2023-05-01T02:33:11.027Z,4.83
2023-05-01T02:35:45.003Z,2.53
2023-05-01T02:38:13.918Z,3.50
2023-05-01T02:40:45.761Z,2.03
2023-05-01T02:43:15.819Z,2.80
2023-05-01T02:45:44.942Z,3.43
2023-05-01T02:48:18.296Z,5.87
2023-05-01T02:50:49.499Z,3.80
2023-05-01T02:53:18.706Z,3.83
2023-05-01T02:55:46.749Z,5.73
2023-05-01T02:58:18.073Z,3.90
2023-05-01T03:00:46.117Z,4.53
2023-05-01T03:03:16.352Z,3.67
2023-05-01T03:05:46.733Z,3.63
2023-05-01T03:08:16.124Z,4.13
2023-05-01T03:10:44.436Z,9.23
2023-05-01T03:13:12.933Z,3.37
2023-05-01T03:15:41.445Z,5.03
2023-05-01T03:18:09.697Z,3.03
2023-05-01T03:20:37.951Z,5.73
2023-05-01T03:23:06.648Z,5.57
2023-05-01T03:25:37.075Z,4.10
2023-05-01T03:28:05.109Z,4.93
2023-05-01T03:30:35.017Z,4.50
2023-05-01T03:33:03.144Z,5.77
2023-05-01T03:35:31.173Z,5.13
2023-05-01T03:37:59.176Z,3.53
2023-05-01T03:40:27.015Z,3.77
2023-05-01T03:42:56.377Z,4.47
2023-05-01T03:45:24.729Z,3.00
2023-05-01T03:47:53.125Z,3.20
2023-05-01T03:50:21.114Z,6.53
2023-05-01T03:52:49.068Z,6.90
2023-05-01T03:55:17.034Z,3.47
2023-05-01T03:57:47.215Z,3.20
2023-05-01T04:00:17.009Z,2.27
2023-05-01T04:02:46.700Z,2.17
2023-05-01T04:05:15.135Z,3.57
2023-05-01T04:07:43.794Z,3.10
2023-05-01T04:10:11.853Z,4.30
2023-05-01T04:12:39.722Z,3.07
2023-05-01T04:15:08.809Z,4.03
2023-05-01T04:17:38.324Z,5.33
2023-05-01T04:20:07.283Z,4.17
2023-05-01T04:22:35.389Z,7.43
2023-05-01T04:25:03.804Z,3.60
2023-05-01T04:27:31.703Z,6.43
2023-05-01T04:29:59.948Z,5.23
2023-05-01T04:32:28.247Z,5.97
2023-05-01T04:34:57.927Z,4.47
2023-05-01T04:37:26.057Z,4.70
2023-05-01T04:39:54.277Z,2.77
2023-05-01T04:42:22.300Z,3.73
2023-05-01T04:44:50.890Z,4.10
2023-05-01T04:47:18.785Z,6.87
2023-05-01T04:49:46.804Z,4.27
2023-05-01T04:52:16.540Z,3.40
2023-05-01T04:54:45.163Z,5.27
2023-05-01T04:57:13.052Z,5.50
2023-05-01T04:59:41.032Z,6.17
2023-05-01T05:02:09.148Z,5.43
2023-05-01T05:04:37.172Z,5.20
2023-05-01T05:07:05.190Z,10.23
2023-05-01T05:09:34.640Z,7.43
2023-05-01T05:12:04.001Z,7.70
2023-05-01T05:14:32.248Z,6.47
2023-05-01T05:17:00.582Z,7.17
2023-05-01T05:19:28.602Z,6.93
2023-05-01T05:21:56.685Z,6.17
2023-05-01T05:24:24.690Z,5.80
2023-05-01T05:26:54.886Z,8.73
2023-05-01T05:29:22.887Z,4.90
2023-05-01T05:31:50.961Z,7.53
2023-05-01T05:34:19.697Z,9.47
2023-05-01T05:36:47.662Z,10.47
2023-05-01T05:39:15.589Z,5.27
2023-05-01T05:41:43.462Z,8.27
2023-05-01T05:44:12.767Z,8.20
2023-05-01T05:46:40.982Z,4.77
2023-05-01T05:49:08.837Z,6.10
2023-05-01T05:51:36.863Z,4.73
2023-05-01T05:54:05.742Z,6.70
2023-05-01T05:56:33.583Z,5.77
2023-05-01T05:59:04.131Z,9.03
2023-05-01T06:01:33.776Z,6.63
2023-05-01T06:04:01.633Z,8.97
2023-05-01T06:06:29.762Z,8.47
2023-05-01T06:08:57.879Z,8.53
2023-05-01T06:11:26.135Z,10.67
2023-05-01T06:13:54.706Z,5.80
2023-05-01T06:16:22.916Z,4.90
2023-05-01T06:18:52.610Z,6.93
2023-05-01T06:21:20.649Z,5.50
2023-05-01T06:23:48.772Z,5.57
2023-05-01T06:26:16.600Z,5.40
2023-05-01T06:28:44.553Z,8.97
2023-05-01T06:31:12.614Z,10.73
2023-05-01T06:33:40.444Z,5.80
2023-05-01T06:36:10.049Z,4.50
2023-05-01T06:38:38.011Z,4.30
2023-05-01T06:41:06.295Z,6.17
2023-05-01T06:43:34.343Z,7.27
2023-05-01T06:46:02.390Z,7.67
2023-05-01T06:48:30.378Z,7.83
2023-05-01T06:50:58.388Z,6.57
2023-05-01T06:53:27.721Z,6.70
2023-05-01T06:55:55.606Z,7.23
2023-05-01T06:58:24.616Z,5.87
2023-05-01T07:00:53.635Z,6.67
2023-05-01T07:03:21.824Z,5.27
2023-05-01T07:05:49.882Z,6.65
2023-05-01T07:08:17.816Z,4.47
2023-05-01T07:10:47.180Z,6.93
2023-05-01T07:13:15.122Z,10.77
2023-05-01T07:15:43.042Z,5.80
2023-05-01T07:18:12.572Z,5.50
2023-05-01T07:20:40.970Z,8.45
2023-05-01T07:23:09.821Z,7.10
2023-05-01T07:25:41.490Z,10.98
2023-05-01T07:28:10.850Z,7.28
2023-05-01T07:30:38.729Z,8.13
2023-05-01T07:33:07.099Z,8.43
2023-05-01T07:35:35.097Z,7.20
2023-05-01T07:38:03.090Z,9.65
2023-05-01T07:40:31.171Z,5.57
2023-05-01T07:42:59.095Z,8.68
2023-05-01T07:45:28.539Z,5.05
2023-05-01T07:47:57.256Z,8.15
2023-05-01T07:50:26.103Z,7.70
2023-05-01T07:52:54.030Z,11.95
2023-05-01T07:55:23.022Z,5.57
2023-05-01T07:57:51.240Z,6.10
2023-05-01T08:00:19.741Z,7.50
2023-05-01T08:02:49.199Z,9.32
2023-05-01T08:05:17.312Z,6.68
2023-05-01T08:07:46.133Z,7.00
2023-05-01T08:10:14.730Z,6.43
2023-05-01T08:12:43.867Z,8.05
2023-05-01T08:15:11.774Z,6.32
2023-05-01T08:17:39.831Z,9.85
2023-05-01T08:20:10.595Z,5.57
2023-05-01T08:22:38.499Z,5.88
2023-05-01T08:25:07.477Z,5.82
2023-05-01T08:27:35.438Z,5.95
2023-05-01T08:30:03.424Z,5.20
2023-05-01T08:32:32.546Z,5.85
2023-05-01T08:35:00.503Z,7.35
2023-05-01T08:37:32.590Z,6.05
2023-05-01T08:40:00.559Z,7.28
2023-05-01T08:42:32.197Z,5.15
2023-05-01T08:45:02.498Z,8.95
2023-05-01T08:47:31.408Z,6.22
2023-05-01T08:50:00.652Z,7.28
2023-05-01T08:52:30.187Z,7.82
2023-05-01T08:55:01.547Z,5.18
2023-05-01T08:57:31.781Z,6.70
2023-05-01T09:00:00.872Z,5.72
2023-05-01T09:02:29.968Z,5.22
2023-05-01T09:04:59.454Z,8.85
2023-05-01T09:07:27.406Z,6.75
2023-05-01T09:09:58.153Z,7.47
2023-05-01T09:12:28.296Z,5.32
2023-05-01T09:14:57.570Z,6.93
2023-05-01T09:17:26.267Z,5.78
2023-05-01T09:19:54.832Z,7.75
2023-05-01T09:22:22.976Z,7.63
2023-05-01T09:24:50.981Z,7.40
2023-05-01T09:27:19.381Z,5.88
2023-05-01T09:29:49.698Z,16.20
2023-05-01T09:32:21.179Z,7.32
2023-05-01T09:34:50.230Z,7.35
2023-05-01T09:37:28.591Z,7.50
2023-05-01T09:40:08.563Z,3.97
2023-05-01T09:42:37.953Z,4.50
2023-05-01T09:45:13.705Z,8.65
2023-05-01T09:47:42.698Z,6.10
2023-05-01T09:50:11.715Z,7.05
2023-05-01T09:52:39.548Z,7.97
2023-05-01T09:55:15.033Z,6.80
2023-05-01T09:57:44.023Z,7.00
2023-05-01T10:00:15.938Z,4.80
2023-05-01T10:02:47.020Z,3.60
2023-05-01T10:05:15.522Z,6.10
2023-05-01T10:07:58.369Z,9.23
2023-05-01T10:10:26.623Z,7.55
2023-05-01T10:12:55.063Z,4.97
2023-05-01T10:15:26.680Z,3.78
2023-05-01T10:17:55.827Z,3.83
2023-05-01T10:20:24.052Z,7.45
2023-05-01T10:22:52.141Z,3.65
2023-05-01T10:25:22.750Z,4.55
2023-05-01T10:27:52.991Z,6.68
2023-05-01T10:30:22.344Z,5.50
2023-05-01T10:32:52.929Z,5.05
2023-05-01T10:35:27.432Z,4.72
2023-05-01T10:38:02.681Z,5.90
2023-05-01T10:40:49.963Z,6.35
2023-05-01T10:43:21.028Z,6.53
2023-05-01T10:45:49.845Z,5.72
2023-05-01T10:48:57.509Z,7.82
2023-05-01T10:51:27.705Z,4.57
2023-05-01T10:54:27.426Z,6.00
2023-05-01T10:56:56.521Z,7.15
2023-05-01T10:59:24.596Z,8.70
2023-05-01T11:01:53.834Z,8.32
2023-05-01T11:04:56.393Z,5.38
2023-05-01T11:07:26.288Z,6.63
2023-05-01T11:09:58.878Z,5.28
2023-05-01T11:12:51.189Z,7.55
2023-05-01T11:15:32.916Z,7.00
2023-05-01T11:18:02.464Z,7.45
2023-05-01T11:20:53.770Z,4.68
2023-05-01T11:23:23.236Z,9.13
2023-05-01T11:25:51.813Z,5.68
2023-05-01T11:28:23.480Z,6.55
2023-05-01T11:30:51.472Z,4.80
2023-05-01T11:33:26.056Z,4.78
2023-05-01T11:36:05.083Z,5.05
2023-05-01T11:38:33.342Z,3.65
2023-05-01T11:41:05.268Z,3.45
2023-05-01T11:43:33.440Z,4.20
2023-05-01T11:46:04.676Z,3.58
2023-05-01T11:48:33.054Z,4.32
2023-05-01T11:51:00.914Z,3.97
2023-05-01T11:53:30.812Z,4.72
2023-05-01T11:55:59.569Z,4.05
2023-05-01T11:58:36.677Z,4.07
2023-05-01T12:01:07.352Z,3.35
2023-05-01T12:03:45.239Z,2.22
2023-05-01T12:06:14.248Z,3.08
2023-05-01T12:08:53.282Z,3.50
2023-05-01T12:11:21.494Z,2.75
2023-05-01T12:13:50.316Z,4.57
2023-05-01T12:16:18.773Z,3.63
2023-05-01T12:18:47.086Z,2.08
2023-05-01T12:21:18.258Z,3.83
2023-05-01T12:23:47.612Z,2.70
2023-05-01T12:26:19.509Z,2.93
2023-05-01T12:28:57.754Z,4.40
2023-05-01T12:31:27.107Z,4.23
2023-05-01T12:33:56.740Z,3.50
2023-05-01T12:36:27.594Z,4.13
2023-05-01T12:39:04.545Z,3.60
2023-05-01T12:41:40.166Z,5.97
2023-05-01T12:44:19.782Z,4.93
2023-05-01T12:46:55.218Z,6.93
2023-05-01T12:49:24.399Z,6.80
2023-05-01T12:51:53.656Z,6.33
2023-05-01T12:54:28.748Z,4.30
2023-05-01T12:57:07.937Z,4.17
2023-05-01T12:59:37.612Z,7.40
2023-05-01T13:02:10.867Z,6.37
2023-05-01T13:04:39.401Z,4.87
2023-05-01T13:07:13.127Z,5.47
2023-05-01T13:09:52.848Z,5.63
2023-05-01T13:12:20.765Z,3.93
2023-05-01T13:14:49.248Z,3.03
2023-05-01T13:17:24.198Z,4.63
2023-05-01T13:19:55.691Z,3.77
2023-05-01T13:22:33.822Z,2.80
2023-05-01T13:25:04.342Z,3.27
2023-05-01T13:27:32.589Z,3.53
2023-05-01T13:30:02.524Z,4.10
2023-05-01T13:32:30.612Z,3.10
2023-05-01T13:35:01.588Z,3.07
2023-05-01T13:37:30.608Z,4.10
2023-05-01T13:39:59.745Z,4.50
2023-05-01T13:42:29.243Z,3.37
2023-05-01T13:44:58.750Z,3.80
2023-05-01T13:47:28.645Z,5.57
2023-05-01T13:49:57.481Z,3.63
2023-05-01T13:52:26.287Z,3.80
2023-05-01T13:54:57.808Z,3.87
2023-05-01T13:57:26.288Z,3.90
2023-05-01T13:59:55.616Z,3.20
2023-05-01T14:02:28.469Z,4.97
2023-05-01T14:04:58.573Z,5.90
2023-05-01T14:07:28.508Z,7.87
2023-05-01T14:09:57.641Z,3.67
2023-05-01T14:12:27.853Z,3.17
2023-05-01T14:14:57.877Z,4.73
2023-05-01T14:17:30.910Z,4.43
2023-05-01T14:19:58.873Z,4.97
2023-05-01T14:22:29.981Z,4.07
2023-05-01T14:24:59.331Z,3.83
2023-05-01T14:27:27.433Z,3.63
2023-05-01T14:29:56.835Z,4.43
2023-05-01T14:32:24.842Z,4.10
2023-05-01T14:34:52.825Z,8.07
2023-05-01T14:37:20.831Z,4.43
2023-05-01T14:39:48.785Z,4.00
2023-05-01T14:42:17.284Z,4.90
2023-05-01T14:44:45.360Z,5.40
2023-05-01T14:47:21.180Z,4.97
2023-05-01T14:49:53.409Z,4.23
2023-05-01T14:52:22.540Z,5.77
2023-05-01T14:54:52.487Z,3.40
2023-05-01T14:57:20.297Z,8.50
2023-05-01T14:59:48.202Z,7.33
2023-05-01T15:02:17.561Z,4.23
2023-05-01T15:04:45.808Z,5.57
2023-05-01T15:07:13.817Z,6.63
2023-05-01T15:09:42.963Z,6.73
2023-05-01T15:12:11.465Z,6.67
2023-05-01T15:14:39.471Z,8.00
2023-05-01T15:17:07.596Z,5.50
2023-05-01T15:19:37.414Z,4.63
2023-05-01T15:22:05.650Z,7.17
2023-05-01T15:24:33.550Z,5.83
2023-05-01T15:27:01.567Z,5.97
2023-05-01T15:29:29.463Z,7.33
2023-05-01T15:32:10.777Z,14.30
2023-05-01T15:34:42.968Z,6.40
2023-05-01T15:37:10.982Z,10.13
2023-05-01T15:39:40.376Z,10.00
2023-05-01T15:42:08.372Z,8.63
2023-05-01T15:44:36.383Z,10.30
2023-05-01T15:47:04.676Z,11.33
2023-05-01T15:49:32.859Z,10.00
2023-05-01T15:52:02.921Z,13.60
2023-05-01T15:54:30.780Z,12.70
2023-05-01T15:56:58.890Z,14.70
2023-05-01T15:59:28.201Z,12.77
2023-05-01T16:01:56.151Z,15.70
2023-05-01T16:04:24.030Z,13.80
2023-05-01T16:06:52.089Z,16.53
2023-05-01T16:09:32.216Z,14.77
2023-05-01T16:12:00.829Z,14.90
2023-05-01T16:14:29.159Z,15.10
2023-05-01T16:16:57.251Z,16.60
2023-05-01T16:19:25.647Z,13.43
2023-05-01T16:21:53.493Z,14.67
2023-05-01T16:24:22.922Z,14.27
2023-05-01T16:26:51.014Z,12.03
2023-05-01T16:29:19.676Z,10.70
2023-05-01T16:31:47.915Z,16.07
2023-05-01T16:34:18.174Z,18.83
2023-05-01T16:36:47.012Z,16.30
2023-05-01T16:39:19.147Z,17.33
2023-05-01T16:41:50.261Z,18.83
2023-05-01T16:44:18.924Z,16.43
2023-05-01T16:46:54.527Z,24.10
2023-05-01T16:49:22.936Z,18.80
2023-05-01T16:51:50.830Z,20.93
2023-05-01T16:54:19.360Z,21.17
2023-05-01T16:56:48.624Z,22.07
2023-05-01T16:59:16.793Z,20.37
2023-05-01T17:01:44.824Z,22.73
2023-05-01T17:04:15.125Z,21.67
2023-05-01T17:06:43.133Z,20.97
2023-05-01T17:09:11.904Z,25.20
2023-05-01T17:11:39.828Z,21.93
2023-05-01T17:14:09.197Z,29.13
2023-05-01T17:16:37.165Z,30.03
2023-05-01T17:19:08.958Z,22.93
2023-05-01T17:21:36.986Z,19.60
2023-05-01T17:24:05.449Z,21.30
2023-05-01T17:26:33.379Z,25.83
2023-05-01T17:29:02.882Z,21.13
2023-05-01T17:31:32.690Z,24.33
2023-05-01T17:34:00.784Z,21.33
2023-05-01T17:36:29.414Z,27.37
2023-05-01T17:38:57.535Z,23.57
2023-05-01T17:41:25.374Z,24.43
2023-05-01T17:43:55.178Z,18.03
2023-05-01T17:46:23.179Z,19.33
2023-05-01T17:48:52.429Z,23.10
2023-05-01T17:51:20.297Z,19.43
2023-05-01T17:53:49.558Z,20.27
2023-05-01T17:56:18.640Z,22.00
2023-05-01T17:58:46.528Z,23.80
2023-05-01T18:01:15.221Z,19.70
2023-05-01T18:03:43.161Z,24.37
2023-05-01T18:06:14.848Z,18.13
2023-05-01T18:08:43.410Z,22.47
2023-05-01T18:11:11.262Z,17.60
2023-05-01T18:13:40.048Z,16.73
2023-05-01T18:16:08.153Z,14.63
2023-05-01T18:18:36.189Z,16.67
2023-05-01T18:21:04.384Z,20.03
2023-05-01T18:23:33.633Z,19.13
2023-05-01T18:26:01.445Z,15.93
2023-05-01T18:28:29.713Z,19.17
2023-05-01T18:30:57.706Z,18.67
2023-05-01T18:33:25.784Z,14.43
2023-05-01T18:35:54.250Z,17.67
2023-05-01T18:38:22.128Z,15.77
2023-05-01T18:40:51.305Z,16.92
2023-05-01T18:43:19.651Z,15.52
2023-05-01T18:45:47.618Z,15.50
2023-05-01T18:48:16.056Z,13.48
2023-05-01T18:50:54.218Z,15.40
2023-05-01T18:53:29.164Z,12.80
2023-05-01T18:55:58.484Z,15.80
2023-05-01T18:58:26.335Z,14.63
2023-05-01T19:00:56.431Z,13.83
2023-05-01T19:03:24.506Z,16.40
2023-05-01T19:05:52.504Z,13.65
2023-05-01T19:08:20.481Z,12.43
2023-05-01T19:10:48.518Z,14.02
2023-05-01T19:13:17.711Z,13.23
2023-05-01T19:15:46.573Z,14.23
2023-05-01T19:18:16.174Z,11.55
2023-05-01T19:20:45.849Z,15.02
2023-05-01T19:23:13.775Z,15.77
2023-05-01T19:25:41.784Z,13.98
2023-05-01T19:28:09.627Z,15.60
2023-05-01T19:30:38.913Z,13.63
2023-05-01T19:33:07.412Z,15.10
2023-05-01T19:35:35.336Z,17.30
2023-05-01T19:38:03.290Z,18.63
2023-05-01T19:40:31.307Z,15.82
2023-05-01T19:42:59.136Z,16.10
2023-05-01T19:45:27.108Z,14.65
2023-05-01T19:47:56.518Z,14.45
2023-05-01T19:50:24.404Z,11.50
2023-05-01T19:52:52.263Z,18.35
2023-05-01T19:55:21.079Z,13.35
2023-05-01T19:57:48.925Z,16.23
2023-05-01T20:00:17.223Z,14.90
2023-05-01T20:02:45.378Z,19.83
2023-05-01T20:05:14.781Z,11.80
2023-05-01T20:07:42.718Z,15.33
2023-05-01T20:10:11.149Z,16.25
2023-05-01T20:12:39.338Z,13.70
2023-05-01T20:15:08.621Z,14.45
2023-05-01T20:17:36.777Z,12.35
2023-05-01T20:20:04.855Z,12.90
2023-05-01T20:22:34.283Z,11.07
2023-05-01T20:25:03.843Z,11.73
2023-05-01T20:27:31.676Z,11.35
2023-05-01T20:30:00.050Z,12.67
2023-05-01T20:32:29.234Z,12.30
2023-05-01T20:34:57.932Z,11.77
2023-05-01T20:37:25.876Z,11.80
2023-05-01T20:39:58.006Z,12.10
2023-05-01T20:42:27.895Z,13.75
2023-05-01T20:44:56.062Z,14.05
2023-05-01T20:47:24.128Z,12.55
2023-05-01T20:49:51.964Z,11.80
2023-05-01T20:52:20.203Z,11.83
2023-05-01T20:54:48.417Z,13.43
2023-05-01T20:57:17.661Z,9.55
2023-05-01T20:59:49.765Z,14.75
2023-05-01T21:02:19.900Z,11.02
2023-05-01T21:04:47.779Z,11.88
2023-05-01T21:07:15.837Z,16.95
2023-05-01T21:09:45.826Z,12.35
2023-05-01T21:12:14.069Z,11.10
2023-05-01T21:14:43.471Z,10.40
2023-05-01T21:17:11.744Z,11.95
2023-05-01T21:19:44.592Z,13.32
2023-05-01T21:22:16.972Z,9.67
2023-05-01T21:24:48.246Z,11.82
2023-05-01T21:27:16.559Z,12.10
2023-05-01T21:29:48.604Z,10.93
2023-05-01T21:32:17.535Z,10.93
2023-05-01T21:34:45.422Z,11.02
2023-05-01T21:37:18.717Z,10.98
2023-05-01T21:39:46.684Z,9.43
2023-05-01T21:42:15.719Z,11.95
2023-05-01T21:44:45.051Z,11.45
2023-05-01T21:47:13.953Z,9.45
2023-05-01T21:49:41.948Z,10.02
2023-05-01T21:52:09.909Z,10.17
2023-05-01T21:54:38.642Z,9.40
2023-05-01T21:57:08.021Z,10.98
2023-05-01T21:59:38.075Z,11.43
2023-05-01T22:02:09.601Z,10.90
2023-05-01T22:04:38.128Z,10.63
2023-05-01T22:07:06.734Z,10.18
2023-05-01T22:09:34.736Z,12.18
2023-05-01T22:12:02.660Z,8.77
2023-05-01T22:14:40.248Z,12.93
2023-05-01T22:17:23.917Z,9.10
2023-05-01T22:19:52.382Z,7.25
2023-05-01T22:22:20.466Z,9.77
2023-05-01T22:24:48.367Z,10.73
2023-05-01T22:27:17.392Z,8.10
2023-05-01T22:29:45.791Z,9.45
2023-05-01T22:32:13.692Z,9.43
2023-05-01T22:34:43.343Z,8.93
2023-05-01T22:37:11.892Z,10.60
2023-05-01T22:39:39.742Z,10.77
2023-05-01T22:42:07.663Z,7.53
2023-05-01T22:44:35.809Z,10.43
2023-05-01T22:47:03.715Z,10.45
2023-05-01T22:49:32.172Z,12.75
2023-05-01T22:52:01.687Z,9.40
2023-05-01T22:54:29.625Z,12.52
2023-05-01T22:56:57.550Z,9.95
2023-05-01T22:59:25.962Z,9.55
2023-05-01T23:01:55.218Z,10.52
2023-05-01T23:04:23.469Z,11.48
2023-05-01T23:06:52.785Z,7.72
2023-05-01T23:09:22.363Z,4.03
2023-05-01T23:11:50.382Z,2.30
2023-05-01T23:14:18.791Z,2.67
2023-05-01T23:16:47.924Z,4.13
2023-05-01T23:19:21.422Z,1.40
2023-05-01T23:21:50.108Z,1.70
2023-05-01T23:24:21.235Z,0.98
2023-05-01T23:26:50.701Z,1.75
2023-05-01T23:29:19.702Z,0.60
2023-05-01T23:31:48.774Z,0.82
2023-05-01T23:34:18.286Z,1.63
2023-05-01T23:36:47.792Z,0.70
2023-05-01T23:39:16.424Z,1.00
2023-05-01T23:41:44.898Z,1.10
2023-05-01T23:44:16.752Z,0.50
2023-05-01T23:46:44.833Z,0.60
2023-05-01T23:49:12.822Z,0.77
2023-05-01T23:51:40.731Z,0.70
2023-05-01T23:54:08.676Z,0.60
2023-05-01T23:56:36.607Z,0.43
2023-05-01T23:59:04.416Z,0.60
